Time;durP1;ratioP1;P1;durP2;ratioP2;P2;SDS_P1;SDS_P2;PMS_P1;PMS_P2;Temp;Humidity;BMP_temperature;BMP_pressure;BME280_temperature;BME280_humidity;BME280_pressure;Samples;Min_cycle;Max_cycle;Signal;HPM_P1;HPM_P2
2022/06/29 00:00:55;;;;;;;5.47;1.45;;;;;;;13.83;100.00;100552.38;6121079;23;20078;-45
2022/06/29 00:03:21;;;;;;;1.02;0.22;;;;;;;13.79;100.00;100546.66;6120587;23;20006;-51
2022/06/29 00:05:46;;;;;;;5.22;0.40;;;;;;;13.78;100.00;100542.34;6119901;23;20341;-47
2022/06/29 00:08:12;;;;;;;2.80;0.28;;;;;;;13.79;100.00;100543.19;6120182;23;20014;-47
2022/06/29 00:10:38;;;;;;;2.28;0.35;;;;;;;13.81;100.00;100538.44;6118873;23;20077;-49
2022/06/29 00:13:04;;;;;;;2.90;0.40;;;;;;;13.78;100.00;100538.84;6119514;23;20002;-45
2022/06/29 00:15:30;;;;;;;1.60;0.20;;;;;;;13.80;100.00;100539.47;6120189;23;20013;-52
2022/06/29 00:17:55;;;;;;;0.63;0.13;;;;;;;13.80;100.00;100539.47;6120238;23;20122;-47
2022/06/29 00:20:21;;;;;;;0.70;0.20;;;;;;;13.79;100.00;100537.84;6120345;23;20014;-49
2022/06/29 00:22:47;;;;;;;3.05;0.57;;;;;;;13.77;100.00;100532.72;6118601;23;20014;-46
2022/06/29 00:25:15;;;;;;;3.42;0.50;;;;;;;13.76;100.00;100533.75;6120632;23;20440;-53
2022/06/29 00:27:41;;;;;;;1.95;0.30;;;;;;;13.73;100.00;100531.50;6118216;23;20009;-48
2022/06/29 00:30:08;;;;;;;2.75;0.20;;;;;;;13.72;100.00;100536.00;6120055;23;20336;-51
2022/06/29 00:32:34;;;;;;;4.13;0.30;;;;;;;13.72;100.00;100537.84;6119632;23;20002;-48
2022/06/29 00:35:00;;;;;;;4.03;0.10;;;;;;;13.72;100.00;100532.53;6120875;23;20305;-54
2022/06/29 00:37:27;;;;;;;4.05;0.40;;;;;;;13.70;100.00;100529.25;6119239;23;20006;-47
2022/06/29 00:39:53;;;;;;;3.88;1.15;;;;;;;13.68;100.00;100537.47;6118802;23;20017;-48
2022/06/29 00:42:18;;;;;;;0.43;0.22;;;;;;;13.66;100.00;100542.19;6119966;23;20011;-50
2022/06/29 00:44:44;;;;;;;2.50;0.65;;;;;;;13.64;100.00;100535.44;6117816;23;20086;-50
2022/06/29 00:47:09;;;;;;;2.80;0.20;;;;;;;13.63;100.00;100534.63;6119925;23;20412;-48
2022/06/29 00:49:35;;;;;;;1.95;0.43;;;;;;;13.62;100.00;100524.16;6119357;23;20046;-45
2022/06/29 00:52:12;;;;;;;0.77;0.30;;;;;;;13.59;100.00;100528.06;6119527;23;20034;-45
2022/06/29 00:54:54;;;;;;;3.58;0.50;;;;;;;13.60;100.00;100524.34;6118460;23;20006;-48
2022/06/29 00:57:25;;;;;;;2.97;0.10;;;;;;;13.59;100.00;100520.06;6120989;23;20062;-48
2022/06/29 00:59:52;;;;;;;4.88;0.60;;;;;;;13.58;100.00;100521.09;6120480;23;20440;-49
2022/06/29 01:02:21;;;;;;;2.47;0.30;;;;;;;13.57;100.00;100524.78;6120546;23;20009;-47
2022/06/29 01:04:47;;;;;;;1.38;0.30;;;;;;;13.56;100.00;100517.84;6121560;23;20040;-45
2022/06/29 01:07:15;;;;;;;3.22;1.15;;;;;;;13.56;100.00;100509.84;6119608;23;20314;-48
2022/06/29 01:09:41;;;;;;;4.75;0.50;;;;;;;13.55;100.00;100516.19;6121018;23;20024;-45
2022/06/29 01:12:07;;;;;;;3.10;0.10;;;;;;;13.55;100.00;100518.03;6118303;23;20093;-47
2022/06/29 01:14:33;;;;;;;9.13;1.25;;;;;;;13.56;100.00;100520.50;6120817;23;20005;-46
2022/06/29 01:16:59;;;;;;;2.40;0.43;;;;;;;13.55;100.00;100518.03;6119847;23;20037;-44
2022/06/29 01:19:25;;;;;;;4.60;0.50;;;;;;;13.55;100.00;100513.50;6121001;23;20033;-46
2022/06/29 01:21:52;;;;;;;4.32;0.10;;;;;;;13.54;100.00;100519.88;6122227;23;20006;-51
2022/06/29 01:24:22;;;;;;;1.55;0.38;;;;;;;13.55;100.00;100515.38;6117236;23;20014;-45
2022/06/29 01:26:48;;;;;;;1.33;0.38;;;;;;;13.53;100.00;100516.41;6119292;23;20277;-45
2022/06/29 01:29:17;;;;;;;3.13;0.40;;;;;;;13.53;100.00;100518.25;6121859;23;20497;-44
2022/06/29 01:31:43;;;;;;;3.17;0.10;;;;;;;13.54;100.00;100519.88;6118810;23;20002;-45
2022/06/29 01:34:09;;;;;;;5.15;1.40;;;;;;;13.52;100.00;100514.75;6121557;23;20424;-47
2022/06/29 01:36:34;;;;;;;1.05;0.20;;;;;;;13.56;100.00;100514.34;6119882;23;20017;-47
2022/06/29 01:39:00;;;;;;;1.95;0.30;;;;;;;13.56;100.00;100509.84;6120768;23;20014;-46
2022/06/29 01:41:25;;;;;;;2.00;0.10;;;;;;;13.54;100.00;100511.88;6121581;23;20010;-45
2022/06/29 01:43:51;;;;;;;3.03;0.30;;;;;;;13.53;100.00;100508.41;6118782;23;20406;-45
2022/06/29 01:46:16;;;;;;;0.73;0.55;;;;;;;13.52;100.00;100506.75;6121578;23;20049;-47
2022/06/29 01:48:42;;;;;;;4.28;1.70;;;;;;;13.55;100.00;100510.03;6120434;23;20424;-50
2022/06/29 01:51:07;;;;;;;7.97;0.50;;;;;;;13.52;100.00;100506.75;6121457;23;20021;-46
2022/06/29 01:53:32;;;;;;;3.17;0.40;;;;;;;13.53;100.00;100512.94;6120998;23;20030;-45
2022/06/29 01:55:58;;;;;;;2.45;0.50;;;;;;;13.53;100.00;100504.94;6119776;23;20006;-47
2022/06/29 01:58:24;;;;;;;0.75;0.00;;;;;;;13.51;100.00;100505.13;6119684;23;20373;-45
2022/06/29 02:00:49;;;;;;;1.85;0.30;;;;;;;13.52;100.00;100498.75;6120535;23;20006;-45
2022/06/29 02:03:14;;;;;;;2.30;0.47;;;;;;;13.49;100.00;100501.03;6121782;23;20013;-46
2022/06/29 02:05:40;;;;;;;2.83;0.63;;;;;;;13.48;100.00;100500.22;6119966;23;20002;-47
2022/06/29 02:08:06;;;;;;;2.65;0.38;;;;;;;13.49;100.00;100495.72;6120953;23;20069;-48
2022/06/29 02:10:32;;;;;;;3.58;0.28;;;;;;;13.47;100.00;100498.56;6118273;23;20037;-52
2022/06/29 02:12:57;;;;;;;0.57;0.10;;;;;;;13.48;100.00;100507.41;6121215;23;20340;-46
2022/06/29 02:15:26;;;;;;;2.95;0.90;;;;;;;13.49;100.00;100498.38;6121449;23;20105;-47
2022/06/29 02:17:51;;;;;;;1.75;0.30;;;;;;;13.47;100.00;100503.91;6118352;23;20042;-48
2022/06/29 02:20:17;;;;;;;4.05;1.20;;;;;;;13.46;100.00;100504.94;6121593;23;20025;-48
2022/06/29 02:22:43;;;;;;;4.03;0.25;;;;;;;13.46;100.00;100498.81;6119314;23;20039;-48
2022/06/29 02:25:09;;;;;;;1.92;0.65;;;;;;;13.49;100.00;100498.38;6117586;23;20010;-48
2022/06/29 02:27:39;;;;;;;5.28;0.30;;;;;;;13.50;100.00;100494.69;6119677;23;20412;-53
2022/06/29 02:30:05;;;;;;;4.05;0.20;;;;;;;13.49;100.00;100504.53;6121243;23;20006;-46
2022/06/29 02:35:14;;;;;;;3.70;0.63;;;;;;;13.51;100.00;100499.81;6121483;23;20074;-49
2022/06/29 02:37:39;;;;;;;5.90;0.40;;;;;;;13.52;100.00;100497.94;6119238;23;20014;-45
2022/06/29 02:40:05;;;;;;;1.40;0.32;;;;;;;13.51;100.00;100494.47;6119216;23;20089;-47
2022/06/29 02:42:31;;;;;;;2.53;0.50;;;;;;;13.51;100.00;100488.34;6120415;23;20040;-47
2022/06/29 02:44:56;;;;;;;0.82;0.13;;;;;;;13.54;100.00;100487.91;6121083;23;20021;-47
2022/06/29 02:47:21;;;;;;;2.45;0.32;;;;;;;13.57;100.00;100492.00;6121041;23;20020;-46
2022/06/29 02:49:47;;;;;;;1.05;0.20;;;;;;;13.56;100.00;100496.53;6119814;23;20033;-50
2022/06/29 02:52:12;;;;;;;5.45;0.80;;;;;;;13.58;100.00;100493.63;6120227;23;20420;-46
2022/06/29 02:54:37;;;;;;;2.65;0.25;;;;;;;13.59;100.00;100481.97;6118716;23;20397;-50
2022/06/29 02:57:03;;;;;;;0.88;0.17;;;;;;;13.59;100.00;100481.97;6120848;23;20013;-45
2022/06/29 02:59:29;;;;;;;1.00;0.10;;;;;;;13.62;100.00;100478.88;6119030;23;20006;-51
2022/06/29 03:01:54;;;;;;;7.75;1.15;;;;;;;13.61;100.00;100475.41;6119521;23;20306;-50
2022/06/29 03:04:20;;;;;;;1.65;0.93;;;;;;;13.63;100.00;100472.50;6119562;23;20325;-46
2022/06/29 03:06:45;;;;;;;1.55;0.10;;;;;;;13.64;100.00;100466.97;6120838;23;20073;-48
2022/06/29 03:09:11;;;;;;;2.85;0.10;;;;;;;13.69;100.00;100474.34;6119379;23;20009;-48
2022/06/29 03:11:37;;;;;;;3.17;0.28;;;;;;;13.70;100.00;100468.78;6118561;23;19998;-50
2022/06/29 03:14:03;;;;;;;2.65;0.35;;;;;;;13.70;100.00;100470.63;6115855;23;20012;-48
2022/06/29 03:16:29;;;;;;;1.58;0.30;;;;;;;13.72;100.00;100466.72;6117530;23;20006;-45
2022/06/29 03:18:54;;;;;;;1.20;0.35;;;;;;;13.74;100.00;100464.69;6119049;23;20021;-45
2022/06/29 03:21:20;;;;;;;1.92;0.22;;;;;;;13.76;100.00;100464.47;6118447;23;20010;-49
2022/06/29 03:23:45;;;;;;;4.13;0.73;;;;;;;13.78;100.00;100461.59;6119413;23;20201;-48
2022/06/29 03:26:11;;;;;;;1.73;0.20;;;;;;;13.79;100.00;100472.03;6114910;23;20002;-44
2022/06/29 03:28:36;;;;;;;8.55;0.38;;;;;;;13.83;100.00;100467.91;6118704;23;20017;-46
2022/06/29 03:31:03;;;;;;;3.10;0.32;;;;;;;13.84;100.00;100468.75;6120352;23;20013;-46
2022/06/29 03:33:28;;;;;;;3.50;1.67;;;;;;;13.83;100.00;100469.75;6120393;23;20088;-46
2022/06/29 03:35:54;;;;;;;5.68;1.00;;;;;;;13.77;100.00;100470.63;6120106;23;20029;-45
2022/06/29 03:38:19;;;;;;;5.60;0.40;;;;;;;13.73;100.00;100475.53;6120274;23;20010;-50
2022/06/29 03:40:44;;;;;;;3.30;0.10;;;;;;;13.68;100.00;100473.53;6117781;23;20002;-47
2022/06/29 03:43:10;;;;;;;2.08;0.30;;;;;;;13.67;100.00;100471.88;6116444;23;20085;-47
2022/06/29 03:45:35;;;;;;;4.78;0.47;;;;;;;13.69;100.00;100479.66;6118480;23;20503;-50
2022/06/29 03:48:01;;;;;;;4.43;0.25;;;;;;;13.67;100.00;100471.88;6119250;23;20029;-47
2022/06/29 03:50:26;;;;;;;2.60;0.38;;;;;;;13.65;100.00;100479.25;6116809;23;20026;-49
2022/06/29 03:52:51;;;;;;;3.17;0.13;;;;;;;13.65;100.00;100476.59;6120541;23;20033;-49
2022/06/29 03:55:17;;;;;;;4.50;1.17;;;;;;;13.66;100.00;100490.75;6120728;23;20013;-46
2022/06/29 03:57:42;;;;;;;12.02;0.70;;;;;;;13.63;100.00;100491.16;6120566;23;20010;-44
2022/06/29 04:00:09;;;;;;;2.08;0.60;;;;;;;13.53;100.00;100497.75;6117997;23;20548;-43
2022/06/29 04:02:36;;;;;;;1.35;0.10;;;;;;;13.40;100.00;100507.59;6120678;23;20002;-45
2022/06/29 04:05:04;;;;;;;2.38;0.88;;;;;;;13.26;100.00;100507.66;6120367;23;20383;-43
2022/06/29 04:07:30;;;;;;;1.50;0.55;;;;;;;13.17;100.00;100519.53;6119936;23;20014;-42
2022/06/29 04:09:59;;;;;;;3.05;0.38;;;;;;;13.11;100.00;100515.00;6120705;23;20021;-43
2022/06/29 04:12:27;;;;;;;0.73;0.30;;;;;;;13.08;100.00;100523.41;6117039;23;20393;-45
2022/06/29 04:14:53;;;;;;;3.08;0.20;;;;;;;13.04;100.00;100535.50;6121369;23;20009;-48
2022/06/29 04:17:18;;;;;;;2.70;0.30;;;;;;;13.00;100.00;100528.94;6118486;23;20040;-47
2022/06/29 04:19:43;;;;;;;2.90;0.17;;;;;;;13.01;100.00;100531.41;6120101;23;20022;-46
2022/06/29 04:22:08;;;;;;;0.28;0.10;;;;;;;12.99;100.00;100536.13;6121015;23;20073;-49
2022/06/29 04:24:34;;;;;;;1.10;0.10;;;;;;;12.98;100.00;100529.16;6120077;23;20136;-47
2022/06/29 04:26:59;;;;;;;1.17;0.52;;;;;;;12.99;100.00;100532.66;6120175;23;20021;-45
2022/06/29 04:29:24;;;;;;;0.10;0.00;;;;;;;12.97;100.00;100540.00;6120748;23;20021;-43
2022/06/29 04:31:50;;;;;;;2.88;0.30;;;;;;;12.97;100.00;100532.03;6118418;23;20137;-45
2022/06/29 04:34:15;;;;;;;1.67;0.20;;;;;;;12.96;100.00;100533.88;6120281;23;20010;-47
2022/06/29 04:36:40;;;;;;;1.63;0.32;;;;;;;12.97;100.00;100532.84;6119071;23;20002;-46
2022/06/29 04:39:06;;;;;;;1.85;0.10;;;;;;;12.97;100.00;100534.69;6121401;23;20018;-45
2022/06/29 04:41:31;;;;;;;1.75;0.10;;;;;;;12.97;100.00;100538.16;6119620;23;20009;-48
2022/06/29 04:43:57;;;;;;;2.03;0.47;;;;;;;12.98;100.00;100536.31;6121021;23;20340;-45
2022/06/29 04:46:25;;;;;;;5.93;1.27;;;;;;;12.99;100.00;100530.00;6120239;23;20093;-45
2022/06/29 04:48:55;;;;;;;0.85;0.30;;;;;;;12.97;100.00;100527.53;6119889;23;20005;-43
2022/06/29 04:51:21;;;;;;;2.50;0.98;;;;;;;12.97;100.00;100526.69;6118222;23;20241;-44
2022/06/29 04:53:48;;;;;;;3.42;0.20;;;;;;;13.00;100.00;100528.94;6121377;23;20283;-45
2022/06/29 04:56:15;;;;;;;5.80;0.32;;;;;;;13.01;100.00;100533.22;6119723;23;20017;-47
2022/06/29 04:58:41;;;;;;;2.20;0.20;;;;;;;13.01;100.00;100527.91;6119798;23;20002;-45
2022/06/29 05:01:06;;;;;;;2.83;0.17;;;;;;;13.04;100.00;100535.50;6120540;23;20037;-43
2022/06/29 05:03:32;;;;;;;3.10;0.98;;;;;;;13.09;100.00;100535.72;6120974;23;20077;-43
2022/06/29 05:05:57;;;;;;;2.10;0.20;;;;;;;13.10;100.00;100529.34;6119968;23;20006;-45
2022/06/29 05:08:22;;;;;;;1.95;0.20;;;;;;;13.12;100.00;100534.47;6121834;23;20309;-45
2022/06/29 05:10:48;;;;;;;1.65;0.15;;;;;;;13.13;100.00;100528.13;6120987;23;20068;-43
2022/06/29 05:13:13;;;;;;;3.15;0.45;;;;;;;13.14;100.00;100519.94;6121576;23;20010;-46
2022/06/29 05:15:39;;;;;;;4.57;1.10;;;;;;;13.16;100.00;100523.19;6119263;23;20017;-49
2022/06/29 05:18:05;;;;;;;1.55;0.10;;;;;;;13.20;100.00;100515.63;6120895;23;20037;-45
2022/06/29 05:20:30;;;;;;;3.67;0.75;;;;;;;13.24;100.00;100517.69;6121003;23;20013;-45
2022/06/29 05:22:56;;;;;;;3.42;0.10;;;;;;;13.28;100.00;100510.91;6118938;23;20332;-46
2022/06/29 05:25:22;;;;;;;5.07;0.40;;;;;;;13.31;100.00;100515.81;6121650;23;20101;-45
2022/06/29 05:27:47;;;;;;;1.40;0.10;;;;;;;13.37;100.00;100508.03;6119648;23;20121;-44
2022/06/29 05:30:14;;;;;;;3.15;0.05;;;;;;;13.39;100.00;100506.78;6121372;23;20041;-46
2022/06/29 05:32:40;;;;;;;1.20;0.73;;;;;;;13.41;100.00;100509.25;6119127;23;20006;-47
2022/06/29 05:35:06;;;;;;;0.57;0.30;;;;;;;13.42;100.00;100506.38;6118729;23;20013;-42
2022/06/29 05:37:32;;;;;;;1.98;0.30;;;;;;;13.40;100.00;100518.25;6120852;23;20140;-45
2022/06/29 05:39:57;;;;;;;0.77;0.35;;;;;;;13.41;100.00;100507.41;6120538;23;20065;-45
2022/06/29 05:42:22;;;;;;;1.70;0.00;;;;;;;13.39;100.00;100509.47;6121954;23;20137;-43
2022/06/29 05:44:48;;;;;;;1.50;0.40;;;;;;;13.39;100.00;100508.66;6118272;23;20017;-44
2022/06/29 05:47:14;;;;;;;0.80;0.00;;;;;;;13.39;100.00;100506.00;6120036;23;20016;-46
2022/06/29 05:49:40;;;;;;;0.15;0.00;;;;;;;13.40;100.00;100512.94;6120143;23;20037;-47
2022/06/29 05:52:06;;;;;;;1.30;0.30;;;;;;;13.39;100.00;100512.13;6121144;23;20451;-44
2022/06/29 05:54:31;;;;;;;2.25;0.28;;;;;;;13.39;100.00;100512.13;6119983;23;20045;-46
2022/06/29 05:56:57;;;;;;;3.13;0.50;;;;;;;13.45;100.00;100515.78;6120558;23;20436;-44
2022/06/29 05:59:22;;;;;;;2.22;0.20;;;;;;;13.46;100.00;100506.78;6120606;23;20351;-44
2022/06/29 06:01:47;;;;;;;0.50;0.10;;;;;;;13.48;100.00;100505.56;6120464;23;20010;-43
2022/06/29 06:04:13;;;;;;;0.60;0.20;;;;;;;13.52;100.00;100511.28;6119449;23;20057;-43
2022/06/29 06:06:38;;;;;;;0.20;0.10;;;;;;;13.55;100.00;100510.84;6118835;23;20371;-42
2022/06/29 06:09:04;;;;;;;0.93;0.00;;;;;;;13.59;100.00;100512.06;6118832;23;20014;-43
2022/06/29 06:11:29;;;;;;;1.40;0.10;;;;;;;13.59;100.00;100514.75;6119874;23;20010;-43
2022/06/29 06:13:55;;;;;;;0.25;0.03;;;;;;;13.56;100.00;100504.50;6116614;23;20006;-44
2022/06/29 06:16:20;;;;;;;1.75;0.10;;;;;;;13.51;100.00;100514.97;6118527;23;20309;-45
2022/06/29 06:18:46;;;;;;;3.13;0.10;;;;;;;13.54;100.00;100514.56;6120215;23;20010;-45
2022/06/29 06:21:11;;;;;;;1.65;0.30;;;;;;;13.60;100.00;100513.69;6120720;23;20022;-44
2022/06/29 06:23:37;;;;;;;4.18;1.15;;;;;;;13.78;100.00;100514.88;6119302;23;20030;-43
2022/06/29 06:26:02;;;;;;;0.30;0.10;;;;;;;13.91;100.00;100522.81;6116950;23;20262;-44
2022/06/29 06:28:28;;;;;;;1.13;0.20;;;;;;;14.13;100.00;100518.81;6118828;23;20013;-43
2022/06/29 06:30:53;;;;;;;0.60;0.60;;;;;;;14.14;100.00;100519.63;6118778;23;20017;-46
2022/06/29 06:33:18;;;;;;;0.73;0.00;;;;;;;14.09;100.00;100520.25;6119775;23;20033;-44
2022/06/29 06:35:44;;;;;;;2.38;0.75;;;;;;;14.08;100.00;100518.63;6116784;23;20014;-48
2022/06/29 06:38:09;;;;;;;1.58;0.25;;;;;;;14.11;100.00;100520.88;6117278;23;20045;-45
2022/06/29 06:43:19;;;;;;;4.00;0.52;;;;;;;14.36;100.00;100520.94;6117017;23;20029;-43
2022/06/29 06:45:44;;;;;;;4.53;0.80;;;;;;;14.45;100.00;100518.81;6115840;23;20002;-48
2022/06/29 06:48:10;;;;;;;0.30;0.20;;;;;;;14.67;100.00;100523.84;6116192;23;20368;-46
2022/06/29 06:50:35;;;;;;;4.03;0.70;;;;;;;14.79;100.00;100522.09;6117479;23;20061;-46
2022/06/29 06:53:02;;;;;;;2.55;0.50;;;;;;;15.01;100.00;100523.34;6107254;23;20127;-52
2022/06/29 06:55:27;;;;;;;1.05;0.38;;;;;;;15.05;100.00;100510.41;6109792;23;20009;-46
2022/06/29 06:57:53;;;;;;;5.20;0.75;;;;;;;14.92;100.00;100511.34;6112663;23;20325;-46
2022/06/29 07:00:18;;;;;;;1.50;0.10;;;;;;;14.80;100.00;100516.56;6114149;23;20048;-46
2022/06/29 07:02:44;;;;;;;3.03;0.75;;;;;;;14.62;100.00;100508.50;6109689;23;20045;-45
2022/06/29 07:05:09;;;;;;;6.40;0.40;;;;;;;14.56;100.00;100507.50;6117104;23;20082;-55
2022/06/29 07:07:35;;;;;;;11.30;0.43;;;;;;;14.52;100.00;100498.25;6111897;23;20385;-48
2022/06/29 07:10:00;;;;;;;5.95;1.77;;;;;;;14.56;100.00;100507.50;6114378;23;20097;-45
2022/06/29 07:12:26;;;;;;;3.92;1.50;;;;;;;14.75;100.00;100491.56;6115391;23;20017;-44
2022/06/29 07:14:52;;;;;;;2.40;0.40;;;;;;;14.93;100.00;100490.78;6116915;23;20060;-49
2022/06/29 07:17:17;;;;;;;1.63;0.20;;;;;;;14.98;100.00;100499.78;6110182;23;20427;-47
2022/06/29 07:19:43;;;;;;;3.45;0.52;;;;;;;15.02;100.00;100513.47;6112374;23;20018;-47
2022/06/29 07:22:09;;;;;;;2.00;0.28;;;;;;;15.00;100.00;100508.38;6111425;23;20009;-47
2022/06/29 07:24:34;;;;;;;2.25;0.40;;;;;;;15.05;100.00;100511.22;6113462;23;20013;-50
2022/06/29 07:27:00;;;;;;;3.15;0.38;;;;;;;15.10;100.00;100504.38;6106366;23;20412;-44
2022/06/29 07:29:25;;;;;;;4.40;0.65;;;;;;;15.14;100.00;100477.03;6110243;23;20094;-44
2022/06/29 07:31:51;;;;;;;3.35;0.40;;;;;;;15.28;100.00;100467.00;6107708;23;20010;-44
2022/06/29 07:34:16;;;;;;;1.10;0.25;;;;;;;15.46;100.00;100463.50;6111039;23;20356;-46
2022/06/29 07:36:42;;;;;;;3.83;0.30;;;;;;;15.48;100.00;100472.94;6113108;23;20006;-46
2022/06/29 07:39:07;;;;;;;2.47;0.50;;;;;;;15.46;100.00;100468.84;6113946;23;20014;-44
2022/06/29 07:41:32;;;;;;;6.43;0.82;;;;;;;15.45;100.00;100457.38;6118556;23;20085;-47
2022/06/29 07:43:58;;;;;;;5.68;0.22;;;;;;;15.46;100.00;100464.34;6111166;23;20020;-43
2022/06/29 07:46:23;;;;;;;5.95;0.43;;;;;;;15.54;100.00;100455.22;6117810;23;20009;-49
2022/06/29 07:48:49;;;;;;;4.68;1.00;;;;;;;15.73;100.00;100458.72;6120596;23;20086;-47
2022/06/29 07:51:15;;;;;;;2.33;0.20;;;;;;;16.05;100.00;100466.50;6120081;23;20002;-44
2022/06/29 07:53:40;;;;;;;4.22;0.95;;;;;;;16.46;100.00;100454.16;6118869;23;20436;-45
2022/06/29 07:56:06;;;;;;;3.13;0.82;;;;;;;16.72;100.00;100440.31;6120169;23;20025;-43
2022/06/29 07:58:31;;;;;;;1.33;0.32;;;;;;;16.63;100.00;100427.53;6113366;23;20463;-45
2022/06/29 08:00:57;;;;;;;2.83;0.30;;;;;;;16.43;100.00;100457.31;6119192;23;20090;-48
2022/06/29 08:03:22;;;;;;;3.72;0.80;;;;;;;16.09;100.00;100462.34;6118969;23;20006;-48
2022/06/29 08:05:48;;;;;;;2.72;0.20;;;;;;;15.83;100.00;100477.69;6120152;23;20523;-44
2022/06/29 08:08:14;;;;;;;1.98;0.30;;;;;;;15.54;100.00;100481.09;6117580;23;20060;-44
2022/06/29 08:10:40;;;;;;;3.75;0.52;;;;;;;15.38;100.00;100472.63;6120821;23;20013;-51
2022/06/29 08:13:05;;;;;;;8.43;1.10;;;;;;;15.27;100.00;100476.88;6120503;23;20090;-51
2022/06/29 08:15:30;;;;;;;2.30;0.30;;;;;;;15.23;100.00;100464.19;6119186;23;20021;-47
2022/06/29 08:17:56;;;;;;;8.25;0.80;;;;;;;15.20;100.00;100456.63;6120432;23;20029;-43
2022/06/29 08:20:22;;;;;;;5.75;0.60;;;;;;;15.22;100.00;100466.03;6119409;23;20010;-48
2022/06/29 08:22:48;;;;;;;3.55;0.63;;;;;;;15.33;100.00;100480.50;6119197;23;20021;-46
2022/06/29 08:25:14;;;;;;;3.33;0.73;;;;;;;15.33;100.00;100467.16;6118564;23;20253;-46
2022/06/29 08:27:40;;;;;;;1.23;0.30;;;;;;;15.35;100.00;100467.75;6094298;23;20097;-50
2022/06/29 08:30:07;;;;;;;5.95;1.27;;;;;;;15.38;100.00;100453.13;6115621;23;20060;-46
2022/06/29 08:32:32;;;;;;;4.53;1.60;;;;;;;15.41;100.00;100460.69;6119943;23;20025;-46
2022/06/29 08:35:00;;;;;;;5.35;0.57;;;;;;;15.41;100.00;100469.56;6119589;23;20399;-45
2022/06/29 08:37:27;;;;;;;3.70;0.68;;;;;;;15.52;100.00;100467.19;6119073;23;20084;-48
2022/06/29 08:39:52;;;;;;;6.95;1.10;;;;;;;15.62;100.00;100456.78;6119659;23;20017;-46
2022/06/29 08:42:22;;;;;;;7.32;1.35;;;;;;;15.68;100.00;100458.53;6120455;23;20014;-48
2022/06/29 08:44:49;;;;;;;7.85;0.73;;;;;;;15.79;100.00;100446.28;6119533;23;20014;-47
2022/06/29 08:47:14;;;;;;;7.97;0.60;;;;;;;15.83;100.00;100439.47;6119607;23;20088;-48
2022/06/29 08:49:39;;;;;;;2.42;0.57;;;;;;;15.81;100.00;100445.03;6119402;23;20081;-50
2022/06/29 08:52:06;;;;;;;3.15;0.30;;;;;;;15.80;100.00;100446.06;6119786;23;20088;-48
2022/06/29 08:54:36;;;;;;;5.10;0.40;;;;;;;16.03;100.00;100449.84;6120068;23;20014;-48
2022/06/29 08:57:02;;;;;;;11.70;2.10;;;;;;;16.77;100.00;100450.34;6120085;23;20053;-48
2022/06/29 08:59:29;;;;;;;5.63;1.65;;;;;;;17.44;100.00;100437.38;6094439;23;20010;-47
2022/06/29 09:01:55;;;;;;;10.52;1.35;;;;;;;17.67;100.00;100428.44;6117775;23;20014;-47
2022/06/29 09:04:20;;;;;;;8.07;1.90;;;;;;;17.82;100.00;100429.81;6118061;23;20085;-49
2022/06/29 09:06:52;;;;;;;3.38;1.40;;;;;;;18.09;100.00;100433.50;6119750;23;20352;-43
2022/06/29 09:09:17;;;;;;;5.40;0.93;;;;;;;18.27;100.00;100426.31;6119442;23;20014;-50
2022/06/29 09:11:43;;;;;;;3.50;1.15;;;;;;;18.57;100.00;100422.50;6119898;23;20484;-52
2022/06/29 09:14:17;;;;;;;3.67;0.63;;;;;;;18.50;100.00;100426.13;6118910;23;20432;-53
2022/06/29 09:17:01;;;;;;;4.70;1.58;;;;;;;18.43;100.00;100438.94;6120267;23;20068;-54
2022/06/29 09:19:43;;;;;;;4.20;1.05;;;;;;;18.00;100.00;100426.94;6118809;23;20164;-48
2022/06/29 09:22:08;;;;;;;8.93;1.65;;;;;;;17.48;100.00;100427.00;6121257;23;20014;-48
2022/06/29 09:24:34;;;;;;;4.80;0.65;;;;;;;17.28;100.00;100426.59;6121738;23;20013;-47
2022/06/29 09:27:03;;;;;;;2.75;0.55;;;;;;;17.38;100.00;100430.28;6121664;23;20006;-48
2022/06/29 09:29:33;;;;;;;5.13;1.70;;;;;;;17.26;100.00;100434.84;6120241;23;20006;-53
2022/06/29 09:32:01;;;;;;;4.72;0.73;;;;;;;17.09;100.00;100437.44;6121346;23;20177;-45
2022/06/29 09:34:34;;;;;;;3.25;0.80;;;;;;;16.90;100.00;100433.25;6121077;23;20455;-52
2022/06/29 09:37:01;;;;;;;0.75;0.28;;;;;;;17.08;100.00;100426.97;6118339;23;20384;-52
2022/06/29 09:39:48;;;;;;;6.40;0.47;;;;;;;17.30;100.00;100419.13;6119598;23;20026;-47
2022/06/29 09:42:14;;;;;;;4.18;0.75;;;;;;;17.08;100.00;100416.25;6120579;23;20428;-51
2022/06/29 09:44:41;;;;;;;3.47;0.95;;;;;;;17.32;100.00;100419.69;6118728;23;20094;-47
2022/06/29 09:47:20;;;;;;;5.05;0.55;;;;;;;17.75;100.00;100421.88;6120607;23;20017;-47
2022/06/29 09:49:59;;;;;;;2.03;0.50;;;;;;;18.20;100.00;100412.22;6121054;23;20006;-45
2022/06/29 09:52:26;;;;;;;3.45;1.38;;;;;;;18.72;100.00;100414.66;6119973;23;20002;-43
2022/06/29 09:54:54;;;;;;;6.93;0.60;;;;;;;18.82;100.00;100409.47;6121061;23;20017;-46
2022/06/29 09:57:22;;;;;;;2.65;0.30;;;;;;;18.72;100.00;100406.59;6117123;23;20010;-50
2022/06/29 10:02:39;;;;;;;3.72;0.50;;;;;;;19.38;100.00;100407.47;6121912;23;20025;-57
2022/06/29 10:05:13;;;;;;;2.22;0.43;;;;;;;19.36;100.00;100398.88;6119834;23;20017;-52
2022/06/29 10:07:41;;;;;;;4.07;0.60;;;;;;;19.25;100.00;100401.69;6119357;23;20034;-46
2022/06/29 10:10:10;;;;;;;1.88;0.30;;;;;;;19.12;100.00;100400.19;6118876;23;20020;-46
2022/06/29 10:15:39;;;;;;;3.53;0.50;;;;;;;19.48;100.00;100400.59;6120146;23;20048;-56
2022/06/29 10:18:04;;;;;;;3.35;0.30;;;;;;;19.89;100.00;100406.44;6121018;23;20006;-46
2022/06/29 10:20:48;;;;;;;5.03;0.45;;;;;;;19.99;100.00;100401.97;6118866;23;20014;-48
2022/06/29 10:23:47;;;;;;;8.65;1.20;;;;;;;19.99;100.00;100407.34;6120079;23;20305;-46
2022/06/29 10:26:28;;;;;;;9.07;0.85;;;;;;;20.01;100.00;100410.59;6120249;23;20351;-57
2022/06/29 10:29:17;;;;;;;9.07;0.90;;;;;;;20.14;100.00;100408.56;6120134;23;20404;-52
2022/06/29 10:31:51;;;;;;;2.58;1.30;;;;;;;20.46;100.00;100411.22;6100233;23;20385;-52
2022/06/29 10:34:32;;;;;;;2.72;1.23;;;;;;;20.67;100.00;100406.81;6121075;23;20020;-48
2022/06/29 10:37:01;;;;;;;1.73;0.43;;;;;;;20.65;100.00;100401.72;6117116;23;20014;-48
2022/06/29 10:39:26;;;;;;;4.60;0.65;;;;;;;20.69;100.00;100394.72;6120324;23;20005;-51
2022/06/29 10:45:01;;;;;;;3.92;0.60;;;;;;;20.38;100.00;100399.06;6105504;23;20009;-54
2022/06/29 10:47:27;;;;;;;2.90;0.68;;;;;;;20.34;100.00;100402.53;6118100;23;20010;-51
2022/06/29 10:50:21;;;;;;;5.88;0.52;;;;;;;20.65;100.00;100390.94;6120571;23;20046;-50
2022/06/29 10:52:49;;;;;;;7.28;1.20;;;;;;;20.92;100.00;100393.50;6117733;23;20412;-47
2022/06/29 10:55:16;;;;;;;2.63;0.88;;;;;;;21.02;100.00;100384.66;6120822;23;19998;-45
2022/06/29 10:57:43;;;;;;;4.88;0.98;;;;;;;20.76;100.00;100402.59;6121208;23;20013;-49
2022/06/29 11:00:15;;;;;;;0.77;0.43;;;;;;;20.76;100.00;100401.78;6119659;23;20010;-50
2022/06/29 11:02:41;;;;;;;11.68;1.00;;;;;;;21.15;100.00;100393.34;6120697;23;20335;-52
2022/06/29 11:05:07;;;;;;;2.42;0.55;;;;;;;21.54;100.00;100389.19;6118951;23;20014;-48
2022/06/29 11:13:00;;;;;;;4.80;0.93;;;;;;;20.80;100.00;100405.56;6119609;23;20021;-52
2022/06/29 11:15:40;;;;;;;2.88;0.60;;;;;;;20.74;100.00;100395.84;6118842;23;20014;-50
2022/06/29 11:18:12;;;;;;;3.08;0.60;;;;;;;20.67;100.00;100396.06;6119423;23;20017;-50
2022/06/29 11:20:42;;;;;;;2.00;0.30;;;;;;;20.48;100.00;100399.13;6120935;23;20014;-51
2022/06/29 11:23:13;;;;;;;1.90;0.80;;;;;;;20.25;100.00;100402.19;6121323;23;20006;-50
2022/06/29 11:25:47;;;;;;;1.92;0.43;;;;;;;20.31;100.00;100397.66;6120836;23;20097;-44
2022/06/29 11:28:19;;;;;;;3.30;0.20;;;;;;;20.40;100.00;100396.94;6120185;23;20117;-45
2022/06/29 11:31:04;;;;;;;4.65;0.32;;;;;;;20.38;100.00;100387.47;6119965;23;20016;-49
2022/06/29 11:33:32;;;;;;;10.65;0.90;;;;;;;20.75;100.00;100394.75;6120185;23;20072;-51
2022/06/29 11:36:06;;;;;;;3.03;0.40;;;;;;;21.07;100.00;100386.59;6121320;23;20428;-44